sensor_id;sensor_type;location;lat;lon;timestamp;pressure;altitude;pressure_sealevel;temperature;humidity
75438;BME280;64015;49.392;15.582;2022-10-03T00:10:22;95909.59;;;9.04;84.87
75438;BME280;64015;49.392;15.582;2022-10-03T00:13:04;95917.72;;;8.97;85.20
75438;BME280;64015;49.392;15.582;2022-10-03T00:23:58;95922.69;;;8.94;85.26
75438;BME280;64015;49.392;15.582;2022-10-03T00:26:49;95930.09;;;9.02;85.27
75438;BME280;64015;49.392;15.582;2022-10-03T00:29:25;95916.44;;;9.05;84.71
75438;BME280;64015;49.392;15.582;2022-10-03T00:32:22;95918.22;;;8.99;85.46
75438;BME280;64015;49.392;15.582;2022-10-03T00:35:00;95909.59;;;9.09;85.07
75438;BME280;64015;49.392;15.582;2022-10-03T00:38:27;95914.88;;;9.09;85.22
75438;BME280;64015;49.392;15.582;2022-10-03T00:40:38;95907.56;;;9.16;84.60
75438;BME280;64015;49.392;15.582;2022-10-03T00:51:50;95926.31;;;9.30;85.40
75438;BME280;64015;49.392;15.582;2022-10-03T00:57:32;95935.59;;;9.01;88.04
75438;BME280;64015;49.392;15.582;2022-10-03T01:00:25;95937.13;;;8.91;88.21
75438;BME280;64015;49.392;15.582;2022-10-03T01:11:18;95936.63;;;8.63;90.28
75438;BME280;64015;49.392;15.582;2022-10-03T01:14:16;95937.16;;;8.65;89.98
75438;BME280;64015;49.392;15.582;2022-10-03T01:19:47;95942.28;;;8.76;89.70
75438;BME280;64015;49.392;15.582;2022-10-03T01:25:11;95939.34;;;8.73;89.56
75438;BME280;64015;49.392;15.582;2022-10-03T01:27:41;95946.41;;;8.67;90.64
75438;BME280;64015;49.392;15.582;2022-10-03T01:30:37;95938.06;;;8.75;90.04
75438;BME280;64015;49.392;15.582;2022-10-03T01:33:12;95937.56;;;8.78;89.63
75438;BME280;64015;49.392;15.582;2022-10-03T01:38:53;95945.16;;;8.75;89.55
75438;BME280;64015;49.392;15.582;2022-10-03T01:41:55;95943.31;;;8.75;89.56
75438;BME280;64015;49.392;15.582;2022-10-03T01:44:33;95942.19;;;8.66;89.29
75438;BME280;64015;49.392;15.582;2022-10-03T01:47:08;95950.56;;;8.63;89.51
75438;BME280;64015;49.392;15.582;2022-10-03T01:49:43;95959.84;;;8.71;88.87
75438;BME280;64015;49.392;15.582;2022-10-03T01:52:37;95957.47;;;8.69;89.25
75438;BME280;64015;49.392;15.582;2022-10-03T01:55:17;95951.34;;;8.64;89.69
75438;BME280;64015;49.392;15.582;2022-10-03T01:58:10;95959.25;;;8.64;89.71
75438;BME280;64015;49.392;15.582;2022-10-03T02:01:07;95947.41;;;8.61;89.43
75438;BME280;64015;49.392;15.582;2022-10-03T02:03:45;95948.72;;;8.64;89.84
75438;BME280;64015;49.392;15.582;2022-10-03T02:06:23;95945.28;;;8.58;89.66
75438;BME280;64015;49.392;15.582;2022-10-03T02:09:02;95948.94;;;8.57;89.43
75438;BME280;64015;49.392;15.582;2022-10-03T02:11:36;95952.22;;;8.69;89.05
75438;BME280;64015;49.392;15.582;2022-10-03T02:14:26;95947.44;;;8.66;88.97
75438;BME280;64015;49.392;15.582;2022-10-03T02:17:00;95960.09;;;8.69;89.05
75438;BME280;64015;49.392;15.582;2022-10-03T02:19:40;95948.03;;;8.73;88.87
75438;BME280;64015;49.392;15.582;2022-10-03T02:22:27;95958.34;;;8.80;88.10
75438;BME280;64015;49.392;15.582;2022-10-03T02:28:13;95965.16;;;8.81;87.92
75438;BME280;64015;49.392;15.582;2022-10-03T02:30:59;95956.75;;;8.79;88.12
75438;BME280;64015;49.392;15.582;2022-10-03T02:39:52;95973.84;;;8.81;87.92
75438;BME280;64015;49.392;15.582;2022-10-03T02:42:39;95969.66;;;8.80;88.23
75438;BME280;64015;49.392;15.582;2022-10-03T02:45:57;95970.66;;;8.74;88.34
75438;BME280;64015;49.392;15.582;2022-10-03T02:51:18;95972.72;;;8.72;87.52
75438;BME280;64015;49.392;15.582;2022-10-03T03:05:43;95984.34;;;8.76;87.95
75438;BME280;64015;49.392;15.582;2022-10-03T03:08:30;95976.22;;;8.78;87.16
75438;BME280;64015;49.392;15.582;2022-10-03T03:17:16;95977.00;;;8.78;86.87
75438;BME280;64015;49.392;15.582;2022-10-03T03:19:51;95980.94;;;8.76;86.75
75438;BME280;64015;49.392;15.582;2022-10-03T03:26:07;95983.47;;;8.66;87.09
75438;BME280;64015;49.392;15.582;2022-10-03T03:29:02;95984.03;;;8.73;86.84
75438;BME280;64015;49.392;15.582;2022-10-03T03:31:44;95973.53;;;8.73;87.06
75438;BME280;64015;49.392;15.582;2022-10-03T03:34:19;95986.44;;;8.74;87.26
75438;BME280;64015;49.392;15.582;2022-10-03T03:37:08;95989.84;;;8.75;86.98
75438;BME280;64015;49.392;15.582;2022-10-03T03:42:35;95981.97;;;8.75;86.39
75438;BME280;64015;49.392;15.582;2022-10-03T03:48:05;95977.50;;;8.75;85.87
75438;BME280;64015;49.392;15.582;2022-10-03T03:56:47;95980.81;;;8.60;86.21
75438;BME280;64015;49.392;15.582;2022-10-03T04:02:09;95980.19;;;8.53;85.09
75438;BME280;64015;49.392;15.582;2022-10-03T04:07:31;95985.84;;;8.40;85.65
75438;BME280;64015;49.392;15.582;2022-10-03T04:10:05;95993.25;;;8.43;85.46
75438;BME280;64015;49.392;15.582;2022-10-03T04:18:19;95981.38;;;8.41;85.28
75438;BME280;64015;49.392;15.582;2022-10-03T04:21:31;95981.97;;;8.48;85.70
75438;BME280;64015;49.392;15.582;2022-10-03T04:26:49;95979.66;;;8.51;85.48
75438;BME280;64015;49.392;15.582;2022-10-03T04:29:45;95973.88;;;8.54;85.28
75438;BME280;64015;49.392;15.582;2022-10-03T04:38:14;95980.59;;;8.67;84.14
75438;BME280;64015;49.392;15.582;2022-10-03T04:41:06;95979.00;;;8.66;84.57
75438;BME280;64015;49.392;15.582;2022-10-03T04:43:51;95986.41;;;8.69;84.40
75438;BME280;64015;49.392;15.582;2022-10-03T04:49:36;95986.91;;;8.71;84.23
75438;BME280;64015;49.392;15.582;2022-10-03T04:55:20;95991.44;;;8.76;83.98
75438;BME280;64015;49.392;15.582;2022-10-03T04:57:55;96002.19;;;8.69;84.19
75438;BME280;64015;49.392;15.582;2022-10-03T05:03:33;95992.63;;;8.63;84.08
75438;BME280;64015;49.392;15.582;2022-10-03T05:06:27;96006.13;;;8.72;83.93
75438;BME280;64015;49.392;15.582;2022-10-03T05:09:19;95995.31;;;8.68;84.33
75438;BME280;64015;49.392;15.582;2022-10-03T05:14:48;96001.03;;;8.60;84.75
75438;BME280;64015;49.392;15.582;2022-10-03T05:17:20;96008.94;;;8.60;84.22
75438;BME280;64015;49.392;15.582;2022-10-03T05:20:02;95997.38;;;8.61;84.52
75438;BME280;64015;49.392;15.582;2022-10-03T05:28:53;96018.31;;;8.51;84.99
75438;BME280;64015;49.392;15.582;2022-10-03T05:31:50;96011.50;;;8.55;84.87
75438;BME280;64015;49.392;15.582;2022-10-03T05:37:44;96016.19;;;8.53;84.81
75438;BME280;64015;49.392;15.582;2022-10-03T05:40:25;96017.09;;;8.64;84.68
75438;BME280;64015;49.392;15.582;2022-10-03T05:43:02;96006.56;;;8.64;85.17
75438;BME280;64015;49.392;15.582;2022-10-03T05:45:47;96032.06;;;8.63;84.79
75438;BME280;64015;49.392;15.582;2022-10-03T05:53:54;96045.09;;;8.75;84.52
75438;BME280;64015;49.392;15.582;2022-10-03T06:13:11;96042.31;;;8.86;83.10
75438;BME280;64015;49.392;15.582;2022-10-03T06:21:38;96053.47;;;8.98;82.81
75438;BME280;64015;49.392;15.582;2022-10-03T06:38:27;96072.38;;;8.95;82.97
75438;BME280;64015;49.392;15.582;2022-10-03T06:43:56;96080.22;;;8.90;84.19
75438;BME280;64015;49.392;15.582;2022-10-03T06:52:11;96089.56;;;8.76;86.11
75438;BME280;64015;49.392;15.582;2022-10-03T06:55:12;96084.78;;;8.73;86.54
75438;BME280;64015;49.392;15.582;2022-10-03T07:03:44;96099.47;;;8.69;86.95
75438;BME280;64015;49.392;15.582;2022-10-03T07:11:48;96105.81;;;8.73;88.13
75438;BME280;64015;49.392;15.582;2022-10-03T07:14:39;96100.81;;;8.72;86.51
75438;BME280;64015;49.392;15.582;2022-10-03T07:22:46;96106.63;;;9.01;84.77
75438;BME280;64015;49.392;15.582;2022-10-03T07:25:34;96105.94;;;9.10;83.36
75438;BME280;64015;49.392;15.582;2022-10-03T07:28:22;96113.69;;;9.22;82.85
75438;BME280;64015;49.392;15.582;2022-10-03T07:37:28;96106.50;;;9.44;81.03
75438;BME280;64015;49.392;15.582;2022-10-03T07:43:35;96122.03;;;9.78;79.02
75438;BME280;64015;49.392;15.582;2022-10-03T07:49:28;96126.09;;;9.90;77.88
75438;BME280;64015;49.392;15.582;2022-10-03T07:58:25;96132.06;;;9.81;77.63
75438;BME280;64015;49.392;15.582;2022-10-03T08:01:35;96124.66;;;9.72;78.99
75438;BME280;64015;49.392;15.582;2022-10-03T08:04:32;96140.09;;;9.64;79.98
75438;BME280;64015;49.392;15.582;2022-10-03T08:07:23;96120.53;;;9.55;81.00
75438;BME280;64015;49.392;15.582;2022-10-03T08:10:06;96127.69;;;9.59;80.99
75438;BME280;64015;49.392;15.582;2022-10-03T08:15:43;96134.50;;;9.55;79.82
75438;BME280;64015;49.392;15.582;2022-10-03T08:21:18;96128.19;;;9.56;80.72
75438;BME280;64015;49.392;15.582;2022-10-03T08:24:12;96147.31;;;9.47;80.83
75438;BME280;64015;49.392;15.582;2022-10-03T08:35:29;96149.41;;;9.71;80.85
75438;BME280;64015;49.392;15.582;2022-10-03T08:51:57;96159.25;;;10.18;76.29
75438;BME280;64015;49.392;15.582;2022-10-03T09:00:23;96158.47;;;10.23;77.42
75438;BME280;64015;49.392;15.582;2022-10-03T09:05:57;96149.66;;;10.12;76.72
75438;BME280;64015;49.392;15.582;2022-10-03T09:14:35;96179.19;;;10.09;78.17
75438;BME280;64015;49.392;15.582;2022-10-03T09:17:32;96176.03;;;10.12;77.09
75438;BME280;64015;49.392;15.582;2022-10-03T09:20:35;96188.75;;;10.20;76.62
75438;BME280;64015;49.392;15.582;2022-10-03T09:26:07;96183.72;;;10.56;75.71
75438;BME280;64015;49.392;15.582;2022-10-03T09:37:41;96184.47;;;10.51;74.82
75438;BME280;64015;49.392;15.582;2022-10-03T09:40:43;96177.34;;;10.57;74.28
75438;BME280;64015;49.392;15.582;2022-10-03T09:49:29;96162.31;;;11.25;69.49
75438;BME280;64015;49.392;15.582;2022-10-03T09:52:04;96172.41;;;11.48;68.97
75438;BME280;64015;49.392;15.582;2022-10-03T09:57:37;96166.84;;;11.54;68.81
75438;BME280;64015;49.392;15.582;2022-10-03T10:00:16;96187.41;;;11.32;69.84
75438;BME280;64015;49.392;15.582;2022-10-03T10:03:06;96178.63;;;11.01;71.50
75438;BME280;64015;49.392;15.582;2022-10-03T10:11:35;96183.44;;;11.35;72.14
75438;BME280;64015;49.392;15.582;2022-10-03T10:29:04;96185.69;;;10.38;75.65
75438;BME280;64015;49.392;15.582;2022-10-03T10:31:58;96181.91;;;10.19;75.16
75438;BME280;64015;49.392;15.582;2022-10-03T10:34:54;96181.09;;;10.66;73.78
75438;BME280;64015;49.392;15.582;2022-10-03T11:05:45;96163.44;;;12.10;65.18
75438;BME280;64015;49.392;15.582;2022-10-03T11:08:54;96148.50;;;14.26;57.13
75438;BME280;64015;49.392;15.582;2022-10-03T11:12:16;96142.69;;;14.52;55.78
75438;BME280;64015;49.392;15.582;2022-10-03T11:14:59;96139.50;;;15.17;54.45
75438;BME280;64015;49.392;15.582;2022-10-03T11:17:48;96137.91;;;15.53;52.38
75438;BME280;64015;49.392;15.582;2022-10-03T11:31:32;96161.25;;;14.76;52.70
75438;BME280;64015;49.392;15.582;2022-10-03T11:34:34;96148.06;;;13.85;56.94
75438;BME280;64015;49.392;15.582;2022-10-03T11:45:31;96167.03;;;13.68;61.13
75438;BME280;64015;49.392;15.582;2022-10-03T11:48:07;96186.94;;;13.21;62.57
75438;BME280;64015;49.392;15.582;2022-10-03T11:50:44;96177.63;;;14.60;58.00
75438;BME280;64015;49.392;15.582;2022-10-03T11:53:18;96158.09;;;16.52;53.13
75438;BME280;64015;49.392;15.582;2022-10-03T12:02:11;96162.34;;;16.53;50.29
75438;BME280;64015;49.392;15.582;2022-10-03T12:10:34;96158.19;;;18.09;46.45
75438;BME280;64015;49.392;15.582;2022-10-03T12:13:12;96168.00;;;16.92;48.98
75438;BME280;64015;49.392;15.582;2022-10-03T12:15:59;96156.13;;;16.43;49.36
75438;BME280;64015;49.392;15.582;2022-10-03T12:23:53;96147.56;;;18.49;43.66
75438;BME280;64015;49.392;15.582;2022-10-03T12:29:02;96140.53;;;18.53;44.16
75438;BME280;64015;49.392;15.582;2022-10-03T12:31:36;96140.91;;;20.03;39.94
75438;BME280;64015;49.392;15.582;2022-10-03T12:34:20;96145.81;;;20.01;39.05
75438;BME280;64015;49.392;15.582;2022-10-03T12:39:36;96138.88;;;18.74;42.96
75438;BME280;64015;49.392;15.582;2022-10-03T12:42:24;96154.63;;;16.37;47.93
75438;BME280;64015;49.392;15.582;2022-10-03T12:47:34;96158.50;;;14.05;56.41
75438;BME280;64015;49.392;15.582;2022-10-03T12:52:49;96169.38;;;12.61;65.23
75438;BME280;64015;49.392;15.582;2022-10-03T12:55:25;96189.34;;;12.18;67.85
75438;BME280;64015;49.392;15.582;2022-10-03T12:58:04;96190.09;;;11.63;70.17
75438;BME280;64015;49.392;15.582;2022-10-03T13:00:41;96182.94;;;11.43;70.53
75438;BME280;64015;49.392;15.582;2022-10-03T13:03:18;96176.66;;;12.05;69.25
75438;BME280;64015;49.392;15.582;2022-10-03T13:08:41;96186.63;;;12.43;65.17
75438;BME280;64015;49.392;15.582;2022-10-03T13:16:34;96188.69;;;12.71;65.96
75438;BME280;64015;49.392;15.582;2022-10-03T13:19:17;96203.41;;;13.03;64.25
75438;BME280;64015;49.392;15.582;2022-10-03T13:22:03;96183.59;;;15.18;58.88
75438;BME280;64015;49.392;15.582;2022-10-03T13:24:56;96177.25;;;15.56;56.46
75438;BME280;64015;49.392;15.582;2022-10-03T13:27:40;96176.41;;;15.18;57.94
75438;BME280;64015;49.392;15.582;2022-10-03T13:33:22;96173.72;;;13.60;62.90
75438;BME280;64015;49.392;15.582;2022-10-03T13:35:53;96179.56;;;13.03;63.59
75438;BME280;64015;49.392;15.582;2022-10-03T13:38:44;96180.75;;;12.77;65.12
75438;BME280;64015;49.392;15.582;2022-10-03T13:41:25;96187.84;;;12.86;64.34
75438;BME280;64015;49.392;15.582;2022-10-03T13:43:59;96192.13;;;12.72;61.28
75438;BME280;64015;49.392;15.582;2022-10-03T13:49:01;96202.81;;;12.42;61.42
75438;BME280;64015;49.392;15.582;2022-10-03T13:51:56;96195.44;;;12.13;62.29
75438;BME280;64015;49.392;15.582;2022-10-03T13:57:20;96199.41;;;11.85;63.05
75438;BME280;64015;49.392;15.582;2022-10-03T14:02:47;96186.44;;;11.84;64.16
75438;BME280;64015;49.392;15.582;2022-10-03T14:13:23;96182.91;;;12.54;62.60
75438;BME280;64015;49.392;15.582;2022-10-03T14:15:57;96182.91;;;12.54;62.58
75438;BME280;64015;49.392;15.582;2022-10-03T14:18:40;96195.31;;;12.64;62.44
75438;BME280;64015;49.392;15.582;2022-10-03T14:21:42;96183.72;;;12.50;62.96
75438;BME280;64015;49.392;15.582;2022-10-03T14:24:37;96193.75;;;12.53;63.23
75438;BME280;64015;49.392;15.582;2022-10-03T14:27:16;96189.03;;;12.50;63.56
75438;BME280;64015;49.392;15.582;2022-10-03T14:30:30;96195.38;;;12.33;63.94
75438;BME280;64015;49.392;15.582;2022-10-03T14:44:01;96189.34;;;12.13;64.05
75438;BME280;64015;49.392;15.582;2022-10-03T14:46:30;96204.94;;;12.29;63.25
75438;BME280;64015;49.392;15.582;2022-10-03T14:49:01;96183.00;;;13.58;57.29
75438;BME280;64015;49.392;15.582;2022-10-03T14:51:35;96180.47;;;14.10;55.14
75438;BME280;64015;49.392;15.582;2022-10-03T14:54:05;96190.88;;;14.36;53.49
75438;BME280;64015;49.392;15.582;2022-10-03T14:56:33;96187.44;;;13.67;55.45
75438;BME280;64015;49.392;15.582;2022-10-03T14:59:11;96189.09;;;13.14;56.35
75438;BME280;64015;49.392;15.582;2022-10-03T15:01:46;96186.00;;;12.87;57.30
75438;BME280;64015;49.392;15.582;2022-10-03T15:04:25;96182.88;;;12.64;58.28
75438;BME280;64015;49.392;15.582;2022-10-03T15:06:53;96189.31;;;12.33;56.88
75438;BME280;64015;49.392;15.582;2022-10-03T15:09:33;96192.78;;;12.08;57.78
75438;BME280;64015;49.392;15.582;2022-10-03T15:14:56;96178.00;;;11.92;58.15
75438;BME280;64015;49.392;15.582;2022-10-03T15:17:33;96192.53;;;11.94;58.28
75438;BME280;64015;49.392;15.582;2022-10-03T15:20:00;96196.25;;;12.04;58.68
75438;BME280;64015;49.392;15.582;2022-10-03T15:22:39;96200.94;;;12.47;57.50
75438;BME280;64015;49.392;15.582;2022-10-03T15:25:15;96204.81;;;12.70;56.86
75438;BME280;64015;49.392;15.582;2022-10-03T15:27:47;96205.63;;;12.70;56.12
75438;BME280;64015;49.392;15.582;2022-10-03T15:30:26;96199.22;;;12.92;55.56
75438;BME280;64015;49.392;15.582;2022-10-03T15:33:02;96194.03;;;13.26;54.29
75438;BME280;64015;49.392;15.582;2022-10-03T15:35:29;96202.47;;;13.38;53.27
75438;BME280;64015;49.392;15.582;2022-10-03T15:38:05;96193.13;;;13.45;53.75
75438;BME280;64015;49.392;15.582;2022-10-03T15:40:35;96195.88;;;13.30;53.61
75438;BME280;64015;49.392;15.582;2022-10-03T15:43:25;96219.88;;;12.80;55.75
75438;BME280;64015;49.392;15.582;2022-10-03T15:45:55;96213.66;;;12.25;56.91
75438;BME280;64015;49.392;15.582;2022-10-03T15:48:21;96208.13;;;11.86;58.28
75438;BME280;64015;49.392;15.582;2022-10-03T15:50:51;96201.44;;;11.53;59.11
75438;BME280;64015;49.392;15.582;2022-10-03T15:53:24;96206.19;;;11.46;59.67
75438;BME280;64015;49.392;15.582;2022-10-03T15:58:32;96216.75;;;11.46;60.01
75438;BME280;64015;49.392;15.582;2022-10-03T16:01:21;96223.06;;;11.30;60.67
75438;BME280;64015;49.392;15.582;2022-10-03T16:04:16;96225.09;;;11.07;61.68
75438;BME280;64015;49.392;15.582;2022-10-03T16:06:52;96212.34;;;10.84;62.72
75438;BME280;64015;49.392;15.582;2022-10-03T16:14:58;96223.91;;;10.31;65.28
75438;BME280;64015;49.392;15.582;2022-10-03T16:17:48;96227.78;;;10.18;66.30
75438;BME280;64015;49.392;15.582;2022-10-03T16:20:37;96226.00;;;9.97;67.06
75438;BME280;64015;49.392;15.582;2022-10-03T16:23:42;96228.47;;;9.77;68.19
75438;BME280;64015;49.392;15.582;2022-10-03T16:26:17;96224.81;;;9.83;68.31
75438;BME280;64015;49.392;15.582;2022-10-03T16:29:06;96223.78;;;9.84;68.55
75438;BME280;64015;49.392;15.582;2022-10-03T16:31:45;96219.47;;;9.72;69.40
75438;BME280;64015;49.392;15.582;2022-10-03T16:34:15;96237.94;;;9.78;69.14
75438;BME280;64015;49.392;15.582;2022-10-03T16:36:46;96222.78;;;9.90;68.72
75438;BME280;64015;49.392;15.582;2022-10-03T16:39:23;96222.25;;;9.93;68.96
75438;BME280;64015;49.392;15.582;2022-10-03T16:41:52;96230.00;;;10.04;68.58
75438;BME280;64015;49.392;15.582;2022-10-03T16:44:26;96234.44;;;9.99;68.79
75438;BME280;64015;49.392;15.582;2022-10-03T16:46:54;96238.34;;;9.91;69.28
75438;BME280;64015;49.392;15.582;2022-10-03T16:52:11;96239.78;;;9.77;70.21
75438;BME280;64015;49.392;15.582;2022-10-03T16:54:37;96234.28;;;9.79;70.51
75438;BME280;64015;49.392;15.582;2022-10-03T16:57:13;96240.09;;;9.81;71.02
75438;BME280;64015;49.392;15.582;2022-10-03T16:59:45;96244.25;;;9.77;70.81
75438;BME280;64015;49.392;15.582;2022-10-03T17:02:14;96230.50;;;9.69;71.20
75438;BME280;64015;49.392;15.582;2022-10-03T17:04:55;96230.59;;;9.80;71.16
75438;BME280;64015;49.392;15.582;2022-10-03T17:07:38;96240.22;;;9.96;71.27
75438;BME280;64015;49.392;15.582;2022-10-03T17:10:19;96242.31;;;9.94;70.79
75438;BME280;64015;49.392;15.582;2022-10-03T17:12:48;96245.19;;;9.92;71.83
75438;BME280;64015;49.392;15.582;2022-10-03T17:15:20;96240.63;;;9.83;72.51
75438;BME280;64015;49.392;15.582;2022-10-03T17:17:52;96247.03;;;9.92;72.62
75438;BME280;64015;49.392;15.582;2022-10-03T17:23:27;96247.78;;;9.87;74.55
75438;BME280;64015;49.392;15.582;2022-10-03T17:26:02;96244.59;;;9.85;75.26
75438;BME280;64015;49.392;15.582;2022-10-03T17:31:28;96232.09;;;9.70;76.71
75438;BME280;64015;49.392;15.582;2022-10-03T17:34:03;96256.34;;;9.72;78.65
75438;BME280;64015;49.392;15.582;2022-10-03T17:36:55;96260.84;;;9.72;78.94
75438;BME280;64015;49.392;15.582;2022-10-03T17:50:14;96249.06;;;9.53;78.24
75438;BME280;64015;49.392;15.582;2022-10-03T17:52:45;96257.44;;;9.50;78.33
75438;BME280;64015;49.392;15.582;2022-10-03T17:55:17;96252.97;;;9.50;78.66
75438;BME280;64015;49.392;15.582;2022-10-03T17:57:49;96269.88;;;9.54;77.83
75438;BME280;64015;49.392;15.582;2022-10-03T18:00:23;96254.16;;;9.64;77.53
75438;BME280;64015;49.392;15.582;2022-10-03T18:05:20;96266.47;;;9.59;78.45
75438;BME280;64015;49.392;15.582;2022-10-03T18:07:49;96259.28;;;9.49;80.36
75438;BME280;64015;49.392;15.582;2022-10-03T18:10:31;96259.41;;;9.38;81.25
75438;BME280;64015;49.392;15.582;2022-10-03T18:13:00;96248.34;;;9.14;82.87
75438;BME280;64015;49.392;15.582;2022-10-03T18:20:46;96264.38;;;8.90;86.33
75438;BME280;64015;49.392;15.582;2022-10-03T18:23:32;96256.47;;;8.90;85.97
75438;BME280;64015;49.392;15.582;2022-10-03T18:26:04;96255.31;;;8.81;86.77
75438;BME280;64015;49.392;15.582;2022-10-03T18:28:59;96251.66;;;8.82;85.89
75438;BME280;64015;49.392;15.582;2022-10-03T18:31:31;96257.09;;;8.76;86.54
75438;BME280;64015;49.392;15.582;2022-10-03T18:34:07;96255.25;;;8.76;86.25
75438;BME280;64015;49.392;15.582;2022-10-03T18:36:42;96246.16;;;8.84;86.24
75438;BME280;64015;49.392;15.582;2022-10-03T18:39:15;96251.59;;;8.77;86.51
75438;BME280;64015;49.392;15.582;2022-10-03T18:41:44;96254.84;;;8.84;85.80
75438;BME280;64015;49.392;15.582;2022-10-03T18:44:21;96258.44;;;8.78;85.57
75438;BME280;64015;49.392;15.582;2022-10-03T18:46:51;96259.72;;;8.76;85.51
75438;BME280;64015;49.392;15.582;2022-10-03T18:49:24;96260.28;;;8.78;85.36
75438;BME280;64015;49.392;15.582;2022-10-03T18:51:57;96254.19;;;8.55;85.57
75438;BME280;64015;49.392;15.582;2022-10-03T18:57:10;96251.16;;;8.47;86.10
75438;BME280;64015;49.392;15.582;2022-10-03T19:00:15;96248.63;;;8.52;85.42
75438;BME280;64015;49.392;15.582;2022-10-03T19:02:52;96252.25;;;8.68;84.43
75438;BME280;64015;49.392;15.582;2022-10-03T19:05:30;96242.66;;;8.78;83.92
75438;BME280;64015;49.392;15.582;2022-10-03T19:08:08;96239.06;;;8.84;83.45
75438;BME280;64015;49.392;15.582;2022-10-03T19:10:44;96234.91;;;8.88;82.93
75438;BME280;64015;49.392;15.582;2022-10-03T19:13:32;96241.25;;;8.92;82.86
75438;BME280;64015;49.392;15.582;2022-10-03T19:18:39;96250.31;;;9.02;82.47
75438;BME280;64015;49.392;15.582;2022-10-03T19:21:11;96248.28;;;9.09;82.07
75438;BME280;64015;49.392;15.582;2022-10-03T19:23:45;96247.81;;;9.12;81.43
75438;BME280;64015;49.392;15.582;2022-10-03T19:26:27;96249.72;;;9.16;80.91
75438;BME280;64015;49.392;15.582;2022-10-03T19:29:10;96249.41;;;9.13;80.88
75438;BME280;64015;49.392;15.582;2022-10-03T19:31:43;96250.75;;;9.15;81.33
75438;BME280;64015;49.392;15.582;2022-10-03T19:34:38;96263.72;;;9.22;80.80
75438;BME280;64015;49.392;15.582;2022-10-03T19:37:09;96248.72;;;9.22;80.46
75438;BME280;64015;49.392;15.582;2022-10-03T19:39:37;96250.34;;;9.28;80.19
75438;BME280;64015;49.392;15.582;2022-10-03T19:42:28;96249.63;;;9.33;80.41
75438;BME280;64015;49.392;15.582;2022-10-03T19:44:58;96247.28;;;9.36;79.25
75438;BME280;64015;49.392;15.582;2022-10-03T19:47:34;96245.88;;;9.51;78.98
75438;BME280;64015;49.392;15.582;2022-10-03T19:50:09;96241.31;;;9.46;79.05
75438;BME280;64015;49.392;15.582;2022-10-03T19:52:40;96241.63;;;9.50;78.54
75438;BME280;64015;49.392;15.582;2022-10-03T20:02:43;96239.84;;;9.55;78.28
75438;BME280;64015;49.392;15.582;2022-10-03T20:05:17;96232.81;;;9.61;77.94
75438;BME280;64015;49.392;15.582;2022-10-03T20:07:55;96231.50;;;9.63;78.08
75438;BME280;64015;49.392;15.582;2022-10-03T20:10:36;96235.69;;;9.59;78.06
75438;BME280;64015;49.392;15.582;2022-10-03T20:13:03;96236.16;;;9.56;78.20
75438;BME280;64015;49.392;15.582;2022-10-03T20:15:47;96236.94;;;9.52;78.15
75438;BME280;64015;49.392;15.582;2022-10-03T20:18:21;96232.22;;;9.54;78.63
75438;BME280;64015;49.392;15.582;2022-10-03T20:20:53;96228.25;;;9.56;78.12
75438;BME280;64015;49.392;15.582;2022-10-03T20:23:22;96235.63;;;9.54;78.88
75438;BME280;64015;49.392;15.582;2022-10-03T20:25:53;96230.91;;;9.56;78.22
75438;BME280;64015;49.392;15.582;2022-10-03T20:28:25;96230.84;;;9.51;79.20
75438;BME280;64015;49.392;15.582;2022-10-03T20:30:54;96236.78;;;9.63;77.42
75438;BME280;64015;49.392;15.582;2022-10-03T20:33:27;96234.09;;;9.58;78.19
75438;BME280;64015;49.392;15.582;2022-10-03T20:35:55;96240.47;;;9.62;78.17
75438;BME280;64015;49.392;15.582;2022-10-03T20:41:11;96238.88;;;9.61;77.87
75438;BME280;64015;49.392;15.582;2022-10-03T20:43:42;96245.72;;;9.62;77.75
75438;BME280;64015;49.392;15.582;2022-10-03T20:49:31;96247.31;;;9.63;78.60
75438;BME280;64015;49.392;15.582;2022-10-03T20:52:01;96250.78;;;9.69;77.53
75438;BME280;64015;49.392;15.582;2022-10-03T20:57:17;96242.56;;;9.65;77.52
75438;BME280;64015;49.392;15.582;2022-10-03T20:59:47;96240.50;;;9.67;77.05
75438;BME280;64015;49.392;15.582;2022-10-03T21:02:28;96238.91;;;9.66;77.81
75438;BME280;64015;49.392;15.582;2022-10-03T21:04:58;96242.28;;;9.62;77.94
75438;BME280;64015;49.392;15.582;2022-10-03T21:07:43;96234.66;;;9.65;78.19
75438;BME280;64015;49.392;15.582;2022-10-03T21:13:30;96244.22;;;9.71;77.67
75438;BME280;64015;49.392;15.582;2022-10-03T21:15:57;96246.81;;;9.66;77.98
75438;BME280;64015;49.392;15.582;2022-10-03T21:18:29;96254.69;;;9.66;77.81
75438;BME280;64015;49.392;15.582;2022-10-03T21:23:27;96259.63;;;9.58;78.95
75438;BME280;64015;49.392;15.582;2022-10-03T21:25:54;96255.63;;;9.55;79.90
75438;BME280;64015;49.392;15.582;2022-10-03T21:28:30;96256.09;;;9.47;81.78
75438;BME280;64015;49.392;15.582;2022-10-03T21:33:46;96258.44;;;9.22;83.42
75438;BME280;64015;49.392;15.582;2022-10-03T21:36:21;96251.03;;;9.19;83.09
75438;BME280;64015;49.392;15.582;2022-10-03T21:38:50;96255.47;;;9.13;85.07
75438;BME280;64015;49.392;15.582;2022-10-03T21:41:28;96245.03;;;9.02;86.12
75438;BME280;64015;49.392;15.582;2022-10-03T21:44:00;96246.03;;;8.95;86.35
75438;BME280;64015;49.392;15.582;2022-10-03T21:46:52;96243.84;;;8.87;87.20
75438;BME280;64015;49.392;15.582;2022-10-03T21:49:31;96241.91;;;8.83;87.49
75438;BME280;64015;49.392;15.582;2022-10-03T21:52:17;96247.94;;;8.78;87.14
75438;BME280;64015;49.392;15.582;2022-10-03T21:58:13;96235.91;;;8.66;89.38
75438;BME280;64015;49.392;15.582;2022-10-03T22:01:00;96238.13;;;8.52;90.23
75438;BME280;64015;49.392;15.582;2022-10-03T22:03:38;96240.34;;;8.43;90.88
75438;BME280;64015;49.392;15.582;2022-10-03T22:06:28;96243.13;;;8.37;91.38
75438;BME280;64015;49.392;15.582;2022-10-03T22:09:02;96234.44;;;8.36;92.50
75438;BME280;64015;49.392;15.582;2022-10-03T22:11:42;96245.19;;;8.35;91.86